sensor_id;sensor_type;location;lat;lon;timestamp;pressure;altitude;pressure_sealevel;temperature;humidity
24280;BME280;12395;42.808;23.408;2023-02-26T00:00:15;93743.78;;;13.56;49.47
24280;BME280;12395;42.808;23.408;2023-02-26T00:02:42;93731.94;;;13.68;48.07
24280;BME280;12395;42.808;23.408;2023-02-26T00:05:10;93718.09;;;13.71;46.81
24280;BME280;12395;42.808;23.408;2023-02-26T00:07:36;93740.31;;;13.87;48.49
24280;BME280;12395;42.808;23.408;2023-02-26T00:10:03;93741.03;;;13.77;49.29
24280;BME280;12395;42.808;23.408;2023-02-26T00:12:29;93712.97;;;13.60;50.34
24280;BME280;12395;42.808;23.408;2023-02-26T00:14:55;93738.25;;;13.62;50.99
24280;BME280;12395;42.808;23.408;2023-02-26T00:19:52;93719.59;;;13.62;49.70
24280;BME280;12395;42.808;23.408;2023-02-26T00:22:18;93724.44;;;13.65;49.86
24280;BME280;12395;42.808;23.408;2023-02-26T00:24:43;93712.16;;;13.59;48.66
24280;BME280;12395;42.808;23.408;2023-02-26T00:27:10;93718.84;;;13.67;49.55
24280;BME280;12395;42.808;23.408;2023-02-26T00:29:36;93706.50;;;13.56;50.05
24280;BME280;12395;42.808;23.408;2023-02-26T00:32:02;93720.59;;;13.51;50.52
24280;BME280;12395;42.808;23.408;2023-02-26T00:34:28;93692.06;;;13.42;50.64
24280;BME280;12395;42.808;23.408;2023-02-26T00:37:16;93705.09;;;13.43;50.29
24280;BME280;12395;42.808;23.408;2023-02-26T00:39:50;93710.19;;;13.50;47.98
24280;BME280;12395;42.808;23.408;2023-02-26T00:42:21;93687.13;;;13.60;48.17
24280;BME280;12395;42.808;23.408;2023-02-26T00:44:46;93674.84;;;13.54;48.60
24280;BME280;12395;42.808;23.408;2023-02-26T00:52:57;93674.16;;;13.69;48.30
24280;BME280;12395;42.808;23.408;2023-02-26T00:55:23;93671.75;;;13.67;46.66
24280;BME280;12395;42.808;23.408;2023-02-26T00:57:49;93675.78;;;13.70;46.54
24280;BME280;12395;42.808;23.408;2023-02-26T01:00:15;93663.00;;;13.72;46.71
24280;BME280;12395;42.808;23.408;2023-02-26T01:02:41;93668.31;;;13.72;46.51
24280;BME280;12395;42.808;23.408;2023-02-26T01:05:07;93672.63;;;13.78;46.54
24280;BME280;12395;42.808;23.408;2023-02-26T01:08:14;93665.19;;;13.80;46.10
24280;BME280;12395;42.808;23.408;2023-02-26T01:10:44;93665.44;;;13.78;45.65
24280;BME280;12395;42.808;23.408;2023-02-26T01:13:09;93670.00;;;13.83;45.95
24280;BME280;12395;42.808;23.408;2023-02-26T01:15:35;93669.13;;;13.72;46.48
24280;BME280;12395;42.808;23.408;2023-02-26T01:18:06;93663.81;;;13.72;46.42
24280;BME280;12395;42.808;23.408;2023-02-26T01:20:44;93665.66;;;13.72;46.49
24280;BME280;12395;42.808;23.408;2023-02-26T01:23:17;93662.72;;;13.68;45.44
24280;BME280;12395;42.808;23.408;2023-02-26T01:25:49;93653.22;;;13.82;44.28
24280;BME280;12395;42.808;23.408;2023-02-26T01:28:15;93648.16;;;13.86;44.82
24280;BME280;12395;42.808;23.408;2023-02-26T01:30:41;93648.16;;;13.86;44.68
24280;BME280;12395;42.808;23.408;2023-02-26T01:35:45;93664.69;;;13.83;45.08
24280;BME280;12395;42.808;23.408;2023-02-26T01:44:33;93640.31;;;13.64;45.49
24280;BME280;12395;42.808;23.408;2023-02-26T01:47:13;93627.28;;;13.63;44.90
24280;BME280;12395;42.808;23.408;2023-02-26T01:49:40;93630.97;;;13.57;44.94
24280;BME280;12395;42.808;23.408;2023-02-26T01:54:57;93622.72;;;13.53;45.68
24280;BME280;12395;42.808;23.408;2023-02-26T01:57:22;93635.25;;;13.58;45.29
24280;BME280;12395;42.808;23.408;2023-02-26T01:59:51;93630.44;;;13.55;44.99
24280;BME280;12395;42.808;23.408;2023-02-26T02:02:20;93626.19;;;13.59;44.88
24280;BME280;12395;42.808;23.408;2023-02-26T02:04:47;93612.84;;;13.54;44.04
24280;BME280;12395;42.808;23.408;2023-02-26T02:07:12;93636.06;;;13.63;45.15
24280;BME280;12395;42.808;23.408;2023-02-26T02:09:38;93631.28;;;13.65;42.26
24280;BME280;12395;42.808;23.408;2023-02-26T02:12:28;93634.31;;;13.84;42.93
24280;BME280;12395;42.808;23.408;2023-02-26T02:25:54;93619.00;;;13.59;43.86
24280;BME280;12395;42.808;23.408;2023-02-26T02:31:30;93612.94;;;13.64;43.93
24280;BME280;12395;42.808;23.408;2023-02-26T02:34:22;93634.59;;;13.82;42.28
24280;BME280;12395;42.808;23.408;2023-02-26T02:39:40;93635.63;;;13.81;42.98
24280;BME280;12395;42.808;23.408;2023-02-26T02:42:25;93620.47;;;13.77;42.62
24280;BME280;12395;42.808;23.408;2023-02-26T02:45:04;93621.31;;;13.92;41.45
24280;BME280;12395;42.808;23.408;2023-02-26T02:47:34;93627.22;;;14.00;41.63
24280;BME280;12395;42.808;23.408;2023-02-26T02:50:08;93630.94;;;13.99;41.23
24280;BME280;12395;42.808;23.408;2023-02-26T02:52:51;93628.84;;;14.06;41.35
24280;BME280;12395;42.808;23.408;2023-02-26T02:55:23;93635.16;;;13.89;42.39
24280;BME280;12395;42.808;23.408;2023-02-26T02:58:09;93628.19;;;13.78;42.85
24280;BME280;12395;42.808;23.408;2023-02-26T03:00:46;93634.22;;;13.69;43.46
24280;BME280;12395;42.808;23.408;2023-02-26T03:06:00;93637.38;;;13.61;43.20
24280;BME280;12395;42.808;23.408;2023-02-26T03:08:27;93603.31;;;13.58;44.36
24280;BME280;12395;42.808;23.408;2023-02-26T03:10:54;93641.28;;;13.48;44.40
24280;BME280;12395;42.808;23.408;2023-02-26T03:13:23;93625.25;;;13.38;44.81
24280;BME280;12395;42.808;23.408;2023-02-26T03:23:35;93624.75;;;13.09;44.19
24280;BME280;12395;42.808;23.408;2023-02-26T03:26:26;93631.00;;;13.25;43.58
24280;BME280;12395;42.808;23.408;2023-02-26T03:28:55;93635.53;;;13.25;44.72
24280;BME280;12395;42.808;23.408;2023-02-26T03:31:31;93633.81;;;13.13;45.41
24280;BME280;12395;42.808;23.408;2023-02-26T03:34:02;93609.06;;;13.08;43.46
24280;BME280;12395;42.808;23.408;2023-02-26T03:36:57;93610.22;;;13.22;43.89
24280;BME280;12395;42.808;23.408;2023-02-26T03:39:32;93596.91;;;13.17;43.91
24280;BME280;12395;42.808;23.408;2023-02-26T03:42:43;93597.13;;;13.10;45.41
24280;BME280;12395;42.808;23.408;2023-02-26T03:45:13;93617.59;;;13.10;45.24
24280;BME280;12395;42.808;23.408;2023-02-26T03:47:44;93608.66;;;12.94;45.75
24280;BME280;12395;42.808;23.408;2023-02-26T03:50:15;93619.19;;;12.84;45.62
24280;BME280;12395;42.808;23.408;2023-02-26T03:52:44;93594.06;;;12.97;43.37
24280;BME280;12395;42.808;23.408;2023-02-26T03:55:21;93608.00;;;13.09;44.04
24280;BME280;12395;42.808;23.408;2023-02-26T03:57:49;93616.97;;;13.03;44.58
24280;BME280;12395;42.808;23.408;2023-02-26T04:00:15;93626.00;;;13.02;45.41
24280;BME280;12395;42.808;23.408;2023-02-26T04:05:16;93620.19;;;13.05;43.88
24280;BME280;12395;42.808;23.408;2023-02-26T04:07:44;93633.34;;;13.17;43.06
24280;BME280;12395;42.808;23.408;2023-02-26T04:10:13;93619.22;;;13.16;43.66
24280;BME280;12395;42.808;23.408;2023-02-26T04:12:41;93614.50;;;13.23;43.81
24280;BME280;12395;42.808;23.408;2023-02-26T04:15:07;93616.03;;;13.14;44.70
24280;BME280;12395;42.808;23.408;2023-02-26T04:17:33;93619.78;;;13.18;44.83
24280;BME280;12395;42.808;23.408;2023-02-26T04:19:58;93610.38;;;13.05;44.82
24280;BME280;12395;42.808;23.408;2023-02-26T04:22:23;93584.50;;;13.01;44.87
24280;BME280;12395;42.808;23.408;2023-02-26T04:24:49;93602.69;;;13.09;44.51
24280;BME280;12395;42.808;23.408;2023-02-26T04:27:14;93599.25;;;13.08;45.92
24280;BME280;12395;42.808;23.408;2023-02-26T04:29:40;93589.78;;;12.96;45.24
24280;BME280;12395;42.808;23.408;2023-02-26T04:32:05;93596.75;;;13.02;46.31
24280;BME280;12395;42.808;23.408;2023-02-26T04:34:31;93578.59;;;12.94;47.03
24280;BME280;12395;42.808;23.408;2023-02-26T04:36:56;93584.38;;;12.86;45.57
24280;BME280;12395;42.808;23.408;2023-02-26T04:39:22;93561.56;;;12.90;45.83
24280;BME280;12395;42.808;23.408;2023-02-26T04:41:47;93566.38;;;12.93;46.60
24280;BME280;12395;42.808;23.408;2023-02-26T04:44:13;93571.06;;;12.81;46.84
24280;BME280;12395;42.808;23.408;2023-02-26T04:46:38;93594.41;;;12.79;46.87
24280;BME280;12395;42.808;23.408;2023-02-26T04:49:06;93577.38;;;12.75;46.55
24280;BME280;12395;42.808;23.408;2023-02-26T04:51:32;93585.41;;;12.80;46.44
24280;BME280;12395;42.808;23.408;2023-02-26T04:53:57;93574.81;;;12.85;46.00
24280;BME280;12395;42.808;23.408;2023-02-26T04:56:23;93564.19;;;12.85;46.05
24280;BME280;12395;42.808;23.408;2023-02-26T04:58:48;93558.00;;;12.79;46.81
24280;BME280;12395;42.808;23.408;2023-02-26T05:01:14;93576.69;;;12.84;46.95
24280;BME280;12395;42.808;23.408;2023-02-26T05:03:39;93560.38;;;12.76;46.82
24280;BME280;12395;42.808;23.408;2023-02-26T05:06:05;93573.13;;;12.74;46.87
24280;BME280;12395;42.808;23.408;2023-02-26T05:08:30;93576.34;;;12.76;45.86
24280;BME280;12395;42.808;23.408;2023-02-26T05:10:56;93557.47;;;12.77;45.99
24280;BME280;12395;42.808;23.408;2023-02-26T05:13:21;93555.13;;;12.81;46.45
24280;BME280;12395;42.808;23.408;2023-02-26T05:15:47;93582.19;;;12.78;46.68
24280;BME280;12395;42.808;23.408;2023-02-26T05:18:12;93581.91;;;12.74;47.25
24280;BME280;12395;42.808;23.408;2023-02-26T05:20:38;93581.38;;;12.72;47.57
24280;BME280;12395;42.808;23.408;2023-02-26T05:23:03;93579.47;;;12.68;47.44
24280;BME280;12395;42.808;23.408;2023-02-26T05:25:29;93577.09;;;12.71;45.67
24280;BME280;12395;42.808;23.408;2023-02-26T05:27:54;93575.88;;;12.84;45.25
24280;BME280;12395;42.808;23.408;2023-02-26T05:30:20;93588.78;;;13.02;45.15
24280;BME280;12395;42.808;23.408;2023-02-26T05:32:46;93576.00;;;12.99;45.36
24280;BME280;12395;42.808;23.408;2023-02-26T05:35:11;93596.81;;;13.07;45.87
24280;BME280;12395;42.808;23.408;2023-02-26T05:37:37;93578.84;;;12.92;45.41
24280;BME280;12395;42.808;23.408;2023-02-26T05:40:04;93599.91;;;12.99;45.86
24280;BME280;12395;42.808;23.408;2023-02-26T05:42:30;93589.78;;;12.96;45.68
24280;BME280;12395;42.808;23.408;2023-02-26T05:44:56;93567.69;;;12.90;45.66
24280;BME280;12395;42.808;23.408;2023-02-26T05:47:22;93596.50;;;13.03;45.77
24280;BME280;12395;42.808;23.408;2023-02-26T05:49:48;93579.66;;;12.93;45.14
24280;BME280;12395;42.808;23.408;2023-02-26T05:52:13;93586.03;;;12.92;44.92
24280;BME280;12395;42.808;23.408;2023-02-26T05:54:39;93591.09;;;12.93;44.58
24280;BME280;12395;42.808;23.408;2023-02-26T05:57:04;93606.53;;;12.96;44.04
24280;BME280;12395;42.808;23.408;2023-02-26T05:59:29;93605.78;;;13.01;43.91
24280;BME280;12395;42.808;23.408;2023-02-26T06:01:55;93600.28;;;13.07;43.85
24280;BME280;12395;42.808;23.408;2023-02-26T06:04:20;93604.47;;;13.03;43.56
24280;BME280;12395;42.808;23.408;2023-02-26T06:06:45;93562.97;;;13.02;43.17
24280;BME280;12395;42.808;23.408;2023-02-26T06:09:11;93583.84;;;13.15;43.73
24280;BME280;12395;42.808;23.408;2023-02-26T06:11:36;93599.25;;;13.13;43.21
24280;BME280;12395;42.808;23.408;2023-02-26T06:14:03;93597.47;;;13.19;43.41
24280;BME280;12395;42.808;23.408;2023-02-26T06:16:29;93601.22;;;13.23;43.15
24280;BME280;12395;42.808;23.408;2023-02-26T06:18:54;93585.31;;;13.33;43.14
24280;BME280;12395;42.808;23.408;2023-02-26T06:21:19;93593.13;;;13.45;42.52
24280;BME280;12395;42.808;23.408;2023-02-26T06:23:45;93608.31;;;13.54;41.45
24280;BME280;12395;42.808;23.408;2023-02-26T06:26:11;93614.28;;;13.71;41.19
24280;BME280;12395;42.808;23.408;2023-02-26T06:28:36;93598.84;;;13.73;41.70
24280;BME280;12395;42.808;23.408;2023-02-26T06:31:02;93621.28;;;13.82;42.27
24280;BME280;12395;42.808;23.408;2023-02-26T06:33:27;93622.63;;;13.85;42.35
24280;BME280;12395;42.808;23.408;2023-02-26T06:35:52;93611.16;;;13.84;42.32
24280;BME280;12395;42.808;23.408;2023-02-26T06:38:18;93628.03;;;14.00;42.72
24280;BME280;12395;42.808;23.408;2023-02-26T06:40:46;93613.13;;;14.04;42.86
24280;BME280;12395;42.808;23.408;2023-02-26T06:43:12;93616.88;;;14.08;42.33
24280;BME280;12395;42.808;23.408;2023-02-26T06:45:37;93626.50;;;14.14;41.77
24280;BME280;12395;42.808;23.408;2023-02-26T06:48:03;93622.78;;;14.15;41.49
24280;BME280;12395;42.808;23.408;2023-02-26T06:50:28;93615.09;;;14.24;41.71
24280;BME280;12395;42.808;23.408;2023-02-26T06:52:54;93617.28;;;14.32;41.51
24280;BME280;12395;42.808;23.408;2023-02-26T06:55:19;93610.38;;;14.46;40.96
24280;BME280;12395;42.808;23.408;2023-02-26T06:57:46;93594.38;;;14.46;40.23
24280;BME280;12395;42.808;23.408;2023-02-26T07:00:12;93612.56;;;14.59;40.14
24280;BME280;12395;42.808;23.408;2023-02-26T07:02:37;93594.44;;;14.66;39.30
24280;BME280;12395;42.808;23.408;2023-02-26T07:05:03;93612.34;;;14.91;39.87
24280;BME280;12395;42.808;23.408;2023-02-26T07:07:28;93628.34;;;15.06;40.66
24280;BME280;12395;42.808;23.408;2023-02-26T07:09:54;93620.09;;;15.12;40.50
24280;BME280;12395;42.808;23.408;2023-02-26T07:12:19;93609.97;;;15.19;38.69
24280;BME280;12395;42.808;23.408;2023-02-26T07:14:44;93632.13;;;15.35;39.09
24280;BME280;12395;42.808;23.408;2023-02-26T07:17:11;93639.56;;;15.38;38.54
24280;BME280;12395;42.808;23.408;2023-02-26T07:19:46;93623.56;;;15.38;38.50
24280;BME280;12395;42.808;23.408;2023-02-26T07:22:11;93625.72;;;15.41;38.87
24280;BME280;12395;42.808;23.408;2023-02-26T07:24:37;93617.19;;;15.29;37.78
24280;BME280;12395;42.808;23.408;2023-02-26T07:27:02;93620.66;;;15.39;37.14
24280;BME280;12395;42.808;23.408;2023-02-26T07:29:28;93604.91;;;15.33;36.43
24280;BME280;12395;42.808;23.408;2023-02-26T07:31:53;93626.28;;;15.43;36.47
24280;BME280;12395;42.808;23.408;2023-02-26T07:34:18;93603.53;;;15.35;37.65
24280;BME280;12395;42.808;23.408;2023-02-26T07:36:44;93605.16;;;15.41;36.70
24280;BME280;12395;42.808;23.408;2023-02-26T07:39:10;93627.84;;;15.44;37.21
24280;BME280;12395;42.808;23.408;2023-02-26T07:41:35;93615.84;;;15.36;37.91
24280;BME280;12395;42.808;23.408;2023-02-26T07:44:01;93607.84;;;15.41;37.26
24280;BME280;12395;42.808;23.408;2023-02-26T07:46:26;93618.00;;;15.44;37.46
24280;BME280;12395;42.808;23.408;2023-02-26T07:48:52;93630.25;;;15.56;36.80
24280;BME280;12395;42.808;23.408;2023-02-26T07:51:17;93611.56;;;15.51;36.32
24280;BME280;12395;42.808;23.408;2023-02-26T07:53:42;93620.94;;;15.43;35.44
24280;BME280;12395;42.808;23.408;2023-02-26T07:56:08;93632.94;;;15.56;36.37
24280;BME280;12395;42.808;23.408;2023-02-26T07:58:34;93633.47;;;15.63;36.28
24280;BME280;12395;42.808;23.408;2023-02-26T08:00:59;93649.47;;;15.68;36.51
24280;BME280;12395;42.808;23.408;2023-02-26T08:03:25;93635.34;;;15.67;36.27
24280;BME280;12395;42.808;23.408;2023-02-26T08:05:50;93640.13;;;15.75;35.54
24280;BME280;12395;42.808;23.408;2023-02-26T08:08:15;93636.38;;;15.76;36.03
24280;BME280;12395;42.808;23.408;2023-02-26T08:10:41;93663.06;;;15.96;35.60
24280;BME280;12395;42.808;23.408;2023-02-26T08:13:06;93635.50;;;16.06;35.39
24280;BME280;12395;42.808;23.408;2023-02-26T08:15:32;93642.94;;;16.19;35.80
24280;BME280;12395;42.808;23.408;2023-02-26T08:17:57;93643.72;;;16.30;35.13
24280;BME280;12395;42.808;23.408;2023-02-26T08:20:23;93643.13;;;16.43;34.59
24280;BME280;12395;42.808;23.408;2023-02-26T08:22:51;93646.88;;;16.57;35.08
24280;BME280;12395;42.808;23.408;2023-02-26T08:25:17;93645.47;;;16.69;34.96
24280;BME280;12395;42.808;23.408;2023-02-26T08:27:43;93649.72;;;16.75;33.96
24280;BME280;12395;42.808;23.408;2023-02-26T08:30:09;93667.25;;;16.96;34.30
24280;BME280;12395;42.808;23.408;2023-02-26T08:32:35;93653.25;;;17.10;34.08
24280;BME280;12395;42.808;23.408;2023-02-26T08:35:00;93668.09;;;17.31;33.67
24280;BME280;12395;42.808;23.408;2023-02-26T08:37:26;93654.69;;;17.36;33.24
24280;BME280;12395;42.808;23.408;2023-02-26T08:39:51;93646.06;;;17.44;33.36
24280;BME280;12395;42.808;23.408;2023-02-26T08:42:17;93679.16;;;17.58;33.08
24280;BME280;12395;42.808;23.408;2023-02-26T08:44:45;93681.72;;;17.73;32.62
24280;BME280;12395;42.808;23.408;2023-02-26T08:47:11;93666.13;;;17.80;31.91
24280;BME280;12395;42.808;23.408;2023-02-26T08:49:36;93654.34;;;17.81;32.52
24280;BME280;12395;42.808;23.408;2023-02-26T08:52:02;93673.47;;;17.98;31.77
24280;BME280;12395;42.808;23.408;2023-02-26T08:54:27;93677.19;;;18.02;31.28
24280;BME280;12395;42.808;23.408;2023-02-26T08:56:53;93692.66;;;18.10;30.49
24280;BME280;12395;42.808;23.408;2023-02-26T08:59:20;93663.09;;;17.92;29.79
24280;BME280;12395;42.808;23.408;2023-02-26T09:01:46;93670.75;;;17.75;29.89
24280;BME280;12395;42.808;23.408;2023-02-26T09:04:11;93675.91;;;17.66;29.62
24280;BME280;12395;42.808;23.408;2023-02-26T09:06:37;93687.78;;;17.55;30.53
24280;BME280;12395;42.808;23.408;2023-02-26T09:09:02;93676.47;;;17.63;31.03
24280;BME280;12395;42.808;23.408;2023-02-26T09:11:28;93683.25;;;17.84;30.70
24280;BME280;12395;42.808;23.408;2023-02-26T09:13:55;93683.63;;;18.01;31.26
24280;BME280;12395;42.808;23.408;2023-02-26T09:16:23;93664.53;;;18.08;30.37
24280;BME280;12395;42.808;23.408;2023-02-26T09:18:48;93666.31;;;18.17;29.37
24280;BME280;12395;42.808;23.408;2023-02-26T09:21:14;93653.19;;;18.16;29.94
24280;BME280;12395;42.808;23.408;2023-02-26T09:23:39;93654.63;;;18.08;29.86
24280;BME280;12395;42.808;23.408;2023-02-26T09:26:04;93644.44;;;18.05;29.67
24280;BME280;12395;42.808;23.408;2023-02-26T09:28:31;93653.00;;;18.07;29.96
24280;BME280;12395;42.808;23.408;2023-02-26T09:30:57;93666.00;;;18.24;30.29
24280;BME280;12395;42.808;23.408;2023-02-26T09:33:22;93632.94;;;18.28;30.28
24280;BME280;12395;42.808;23.408;2023-02-26T09:35:49;93652.47;;;18.34;29.42
24280;BME280;12395;42.808;23.408;2023-02-26T09:38:15;93668.84;;;18.32;30.30
24280;BME280;12395;42.808;23.408;2023-02-26T09:43:37;93659.19;;;18.31;30.43
24280;BME280;12395;42.808;23.408;2023-02-26T09:46:30;93658.03;;;18.37;30.08
24280;BME280;12395;42.808;23.408;2023-02-26T09:51:53;93643.41;;;18.30;29.29
24280;BME280;12395;42.808;23.408;2023-02-26T09:54:23;93647.72;;;18.26;29.16
24280;BME280;12395;42.808;23.408;2023-02-26T09:56:50;93640.13;;;18.33;29.92
24280;BME280;12395;42.808;23.408;2023-02-26T09:59:17;93641.41;;;18.40;30.31
24280;BME280;12395;42.808;23.408;2023-02-26T10:02:04;93646.44;;;18.47;30.48
24280;BME280;12395;42.808;23.408;2023-02-26T10:10:00;93649.34;;;18.51;29.07
24280;BME280;12395;42.808;23.408;2023-02-26T10:12:30;93638.94;;;18.68;29.41
24280;BME280;12395;42.808;23.408;2023-02-26T10:15:07;93638.88;;;18.73;28.58
24280;BME280;12395;42.808;23.408;2023-02-26T10:20:20;93650.69;;;18.72;28.66
24280;BME280;12395;42.808;23.408;2023-02-26T10:23:06;93647.97;;;18.77;28.88
24280;BME280;12395;42.808;23.408;2023-02-26T10:25:36;93654.19;;;18.91;29.42
24280;BME280;12395;42.808;23.408;2023-02-26T10:30:43;93652.84;;;18.93;28.05
24280;BME280;12395;42.808;23.408;2023-02-26T10:33:33;93654.94;;;18.96;27.81
24280;BME280;12395;42.808;23.408;2023-02-26T10:36:12;93649.53;;;18.78;28.09
24280;BME280;12395;42.808;23.408;2023-02-26T10:38:41;93652.50;;;18.58;28.05
24280;BME280;12395;42.808;23.408;2023-02-26T10:41:13;93644.03;;;18.45;28.24
24280;BME280;12395;42.808;23.408;2023-02-26T10:43:42;93632.94;;;18.28;28.62
24280;BME280;12395;42.808;23.408;2023-02-26T10:46:59;93626.13;;;18.17;29.60
24280;BME280;12395;42.808;23.408;2023-02-26T10:49:41;93628.00;;;18.17;29.08
24280;BME280;12395;42.808;23.408;2023-02-26T10:52:15;93625.13;;;18.08;29.92
24280;BME280;12395;42.808;23.408;2023-02-26T10:55:07;93624.72;;;17.96;30.11
24280;BME280;12395;42.808;23.408;2023-02-26T10:57:43;93622.28;;;18.00;29.42
24280;BME280;12395;42.808;23.408;2023-02-26T11:00:16;93627.41;;;17.96;29.13
24280;BME280;12395;42.808;23.408;2023-02-26T11:02:45;93616.69;;;17.96;29.01
24280;BME280;12395;42.808;23.408;2023-02-26T11:05:17;93622.09;;;17.91;29.80
24280;BME280;12395;42.808;23.408;2023-02-26T11:07:46;93610.56;;;17.91;30.72
24280;BME280;12395;42.808;23.408;2023-02-26T11:10:16;93595.28;;;17.91;29.76
24280;BME280;12395;42.808;23.408;2023-02-26T11:12:41;93582.75;;;17.87;30.49
24280;BME280;12395;42.808;23.408;2023-02-26T11:15:18;93588.91;;;17.87;30.79
24280;BME280;12395;42.808;23.408;2023-02-26T11:17:46;93570.88;;;17.69;30.89
24280;BME280;12395;42.808;23.408;2023-02-26T11:20:32;93601.31;;;17.78;30.94
24280;BME280;12395;42.808;23.408;2023-02-26T11:23:00;93591.88;;;17.57;30.47
24280;BME280;12395;42.808;23.408;2023-02-26T11:25:29;93588.75;;;17.45;30.38
24280;BME280;12395;42.808;23.408;2023-02-26T11:28:16;93599.97;;;17.47;30.45
24280;BME280;12395;42.808;23.408;2023-02-26T11:30:43;93598.91;;;17.43;30.63
24280;BME280;12395;42.808;23.408;2023-02-26T11:33:26;93609.09;;;17.46;30.83
24280;BME280;12395;42.808;23.408;2023-02-26T11:35:59;93599.06;;;17.28;31.62
24280;BME280;12395;42.808;23.408;2023-02-26T11:38:27;93609.78;;;17.28;32.43
24280;BME280;12395;42.808;23.408;2023-02-26T11:40:57;93608.47;;;17.25;32.88
24280;BME280;12395;42.808;23.408;2023-02-26T11:43:25;93631.97;;;17.28;32.66
24280;BME280;12395;42.808;23.408;2023-02-26T11:46:02;93627.00;;;17.17;33.57
24280;BME280;12395;42.808;23.408;2023-02-26T11:48:40;93631.31;;;17.13;33.03
24280;BME280;12395;42.808;23.408;2023-02-26T11:51:07;93615.81;;;17.05;33.51
24280;BME280;12395;42.808;23.408;2023-02-26T11:54:02;93627.91;;;17.02;33.73
24280;BME280;12395;42.808;23.408;2023-02-26T11:56:34;93649.50;;;17.11;34.28
24280;BME280;12395;42.808;23.408;2023-02-26T11:59:06;93626.06;;;16.92;34.47
24280;BME280;12395;42.808;23.408;2023-02-26T12:01:35;93648.22;;;17.03;33.99
24280;BME280;12395;42.808;23.408;2023-02-26T12:04:02;93645.31;;;17.00;34.04
24280;BME280;12395;42.808;23.408;2023-02-26T12:06:28;93652.28;;;16.95;34.43
24280;BME280;12395;42.808;23.408;2023-02-26T12:08:54;93645.09;;;16.86;34.37
24280;BME280;12395;42.808;23.408;2023-02-26T12:19:41;93648.66;;;16.76;34.42
24280;BME280;12395;42.808;23.408;2023-02-26T12:25:26;93667.91;;;16.73;35.79
24280;BME280;12395;42.808;23.408;2023-02-26T12:33:52;93646.63;;;16.43;36.88
24280;BME280;12395;42.808;23.408;2023-02-26T12:50:25;93625.22;;;16.43;35.98
24280;BME280;12395;42.808;23.408;2023-02-26T12:56:03;93587.28;;;16.36;37.18
24280;BME280;12395;42.808;23.408;2023-02-26T13:20:15;93573.91;;;16.41;37.26
24280;BME280;12395;42.808;23.408;2023-02-26T13:22:45;93567.00;;;16.30;37.74
24280;BME280;12395;42.808;23.408;2023-02-26T13:25:20;93569.41;;;16.32;37.39
24280;BME280;12395;42.808;23.408;2023-02-26T13:27:49;93567.53;;;16.32;37.73
24280;BME280;12395;42.808;23.408;2023-02-26T13:30:40;93582.44;;;16.43;37.83
24280;BME280;12395;42.808;23.408;2023-02-26T13:33:16;93591.00;;;16.50;37.29
24280;BME280;12395;42.808;23.408;2023-02-26T13:35:43;93585.09;;;16.53;36.18
24280;BME280;12395;42.808;23.408;2023-02-26T13:38:26;93617.69;;;16.60;38.36
24280;BME280;12395;42.808;23.408;2023-02-26T13:44:23;93596.19;;;16.80;38.30
24280;BME280;12395;42.808;23.408;2023-02-26T13:49:56;93607.41;;;16.82;39.67
24280;BME280;12395;42.808;23.408;2023-02-26T13:52:28;93611.66;;;16.83;39.23
24280;BME280;12395;42.808;23.408;2023-02-26T13:54:55;93614.31;;;16.88;39.73
24280;BME280;12395;42.808;23.408;2023-02-26T13:58:15;93611.38;;;16.90;39.83
24280;BME280;12395;42.808;23.408;2023-02-26T14:00:46;93608.53;;;16.76;40.35
24280;BME280;12395;42.808;23.408;2023-02-26T14:11:24;93622.44;;;16.73;40.93
24280;BME280;12395;42.808;23.408;2023-02-26T14:16:42;93623.47;;;16.82;40.57
24280;BME280;12395;42.808;23.408;2023-02-26T14:21:49;93616.00;;;16.74;41.03
24280;BME280;12395;42.808;23.408;2023-02-26T14:24:19;93623.47;;;16.82;41.25
24280;BME280;12395;42.808;23.408;2023-02-26T14:28:15;93633.13;;;16.78;40.73
24280;BME280;12395;42.808;23.408;2023-02-26T14:35:17;93639.13;;;16.50;41.28
24280;BME280;12395;42.808;23.408;2023-02-26T14:37:53;93643.94;;;16.48;41.20
24280;BME280;12395;42.808;23.408;2023-02-26T14:40:24;93640.72;;;16.51;40.56
24280;BME280;12395;42.808;23.408;2023-02-26T14:42:53;93642.06;;;16.44;40.33
24280;BME280;12395;42.808;23.408;2023-02-26T14:45:37;93644.75;;;16.39;40.78
24280;BME280;12395;42.808;23.408;2023-02-26T14:48:06;93662.13;;;16.36;40.56
24280;BME280;12395;42.808;23.408;2023-02-26T14:58:57;93662.50;;;16.09;40.63
24280;BME280;12395;42.808;23.408;2023-02-26T15:12:25;93682.03;;;15.80;42.04
24280;BME280;12395;42.808;23.408;2023-02-26T15:15:42;93687.38;;;15.75;42.98
24280;BME280;12395;42.808;23.408;2023-02-26T15:18:05;93673.75;;;15.61;43.44
24280;BME280;12395;42.808;23.408;2023-02-26T15:24:12;93683.66;;;15.46;43.97
24280;BME280;12395;42.808;23.408;2023-02-26T15:26:34;93694.28;;;15.35;44.46
24280;BME280;12395;42.808;23.408;2023-02-26T15:29:03;93707.63;;;15.20;44.67
24280;BME280;12395;42.808;23.408;2023-02-26T15:31:34;93708.66;;;15.14;45.23
24280;BME280;12395;42.808;23.408;2023-02-26T15:34:00;93709.16;;;15.01;45.88
24280;BME280;12395;42.808;23.408;2023-02-26T15:36:28;93723.59;;;15.05;46.01
24280;BME280;12395;42.808;23.408;2023-02-26T15:38:56;93722.22;;;14.93;46.45
24280;BME280;12395;42.808;23.408;2023-02-26T15:41:26;93732.06;;;14.87;47.18
24280;BME280;12395;42.808;23.408;2023-02-26T15:44:02;93717.63;;;14.78;47.57
24280;BME280;12395;42.808;23.408;2023-02-26T15:46:37;93759.25;;;14.79;48.16
24280;BME280;12395;42.808;23.408;2023-02-26T15:49:13;93743.75;;;14.76;48.54
24280;BME280;12395;42.808;23.408;2023-02-26T15:51:43;93745.59;;;14.65;48.83
24280;BME280;12395;42.808;23.408;2023-02-26T15:54:15;93741.56;;;14.63;49.03